sensor_id;sensor_type;location;lat;lon;timestamp;P1;durP1;ratioP1;P2;durP2;ratioP2
11865;SDS011;5992;52.744;6.898;2023-11-19T00:00:22;5.60;;;5.10;;
11865;SDS011;5992;52.744;6.898;2023-11-19T00:03:35;5.73;;;5.13;;
11865;SDS011;5992;52.744;6.898;2023-11-19T00:06:35;5.47;;;5.03;;
11865;SDS011;5992;52.744;6.898;2023-11-19T00:09:51;5.77;;;5.27;;
11865;SDS011;5992;52.744;6.898;2023-11-19T00:13:08;5.33;;;4.83;;
11865;SDS011;5992;52.744;6.898;2023-11-19T00:16:25;5.43;;;4.63;;
11865;SDS011;5992;52.744;6.898;2023-11-19T00:19:30;5.60;;;5.10;;
11865;SDS011;5992;52.744;6.898;2023-11-19T00:22:45;6.03;;;5.00;;
11865;SDS011;5992;52.744;6.898;2023-11-19T00:26:01;5.00;;;4.60;;
11865;SDS011;5992;52.744;6.898;2023-11-19T00:29:26;6.93;;;4.90;;
11865;SDS011;5992;52.744;6.898;2023-11-19T00:32:31;5.93;;;5.43;;
11865;SDS011;5992;52.744;6.898;2023-11-19T00:35:55;9.05;;;5.50;;
11865;SDS011;5992;52.744;6.898;2023-11-19T00:39:11;5.63;;;4.93;;
11865;SDS011;5992;52.744;6.898;2023-11-19T00:42:27;6.35;;;5.70;;
11865;SDS011;5992;52.744;6.898;2023-11-19T00:45:40;5.80;;;5.30;;
11865;SDS011;5992;52.744;6.898;2023-11-19T00:48:53;5.57;;;5.07;;
11865;SDS011;5992;52.744;6.898;2023-11-19T00:51:53;6.07;;;5.47;;
11865;SDS011;5992;52.744;6.898;2023-11-19T00:55:08;6.55;;;5.85;;
11865;SDS011;5992;52.744;6.898;2023-11-19T00:58:09;6.10;;;5.50;;
11865;SDS011;5992;52.744;6.898;2023-11-19T01:01:34;6.60;;;6.00;;
11865;SDS011;5992;52.744;6.898;2023-11-19T01:04:36;7.73;;;5.90;;
11865;SDS011;5992;52.744;6.898;2023-11-19T01:08:01;6.33;;;5.73;;
11865;SDS011;5992;52.744;6.898;2023-11-19T01:11:19;6.23;;;5.63;;
11865;SDS011;5992;52.744;6.898;2023-11-19T01:14:45;6.87;;;6.23;;
11865;SDS011;5992;52.744;6.898;2023-11-19T01:17:58;7.10;;;6.40;;
11865;SDS011;5992;52.744;6.898;2023-11-19T01:21:11;8.35;;;6.20;;
11865;SDS011;5992;52.744;6.898;2023-11-19T01:24:23;6.35;;;5.75;;
11865;SDS011;5992;52.744;6.898;2023-11-19T01:27:35;6.50;;;5.90;;
11865;SDS011;5992;52.744;6.898;2023-11-19T01:30:36;12.10;;;6.43;;
11865;SDS011;5992;52.744;6.898;2023-11-19T01:34:01;6.37;;;5.77;;
11865;SDS011;5992;52.744;6.898;2023-11-19T01:37:01;6.35;;;5.75;;
11865;SDS011;5992;52.744;6.898;2023-11-19T01:40:14;6.55;;;5.90;;
11865;SDS011;5992;52.744;6.898;2023-11-19T01:46:44;7.67;;;6.57;;
11865;SDS011;5992;52.744;6.898;2023-11-19T01:50:08;7.93;;;5.83;;
11865;SDS011;5992;52.744;6.898;2023-11-19T01:53:32;10.03;;;6.60;;
11865;SDS011;5992;52.744;6.898;2023-11-19T01:56:44;8.50;;;6.30;;
11865;SDS011;5992;52.744;6.898;2023-11-19T02:00:00;10.63;;;6.77;;
11865;SDS011;5992;52.744;6.898;2023-11-19T02:03:29;12.60;;;6.60;;
11865;SDS011;5992;52.744;6.898;2023-11-19T02:06:54;10.23;;;6.70;;
11865;SDS011;5992;52.744;6.898;2023-11-19T02:10:22;7.17;;;5.73;;
11865;SDS011;5992;52.744;6.898;2023-11-19T02:13:36;8.13;;;6.43;;
11865;SDS011;5992;52.744;6.898;2023-11-19T02:17:00;11.33;;;5.87;;
11865;SDS011;5992;52.744;6.898;2023-11-19T02:20:02;9.80;;;6.20;;
11865;SDS011;5992;52.744;6.898;2023-11-19T02:23:26;7.30;;;6.40;;
11865;SDS011;5992;52.744;6.898;2023-11-19T02:26:39;9.93;;;5.97;;
11865;SDS011;5992;52.744;6.898;2023-11-19T02:30:06;7.77;;;5.67;;
11865;SDS011;5992;52.744;6.898;2023-11-19T02:33:12;12.03;;;6.13;;
11865;SDS011;5992;52.744;6.898;2023-11-19T02:36:36;10.97;;;5.87;;
11865;SDS011;5992;52.744;6.898;2023-11-19T02:39:36;12.80;;;5.25;;
11865;SDS011;5992;52.744;6.898;2023-11-19T02:42:49;11.40;;;5.15;;
11865;SDS011;5992;52.744;6.898;2023-11-19T02:45:52;10.15;;;5.90;;
11865;SDS011;5992;52.744;6.898;2023-11-19T02:49:20;9.53;;;4.90;;
11865;SDS011;5992;52.744;6.898;2023-11-19T02:52:20;8.57;;;4.90;;
11865;SDS011;5992;52.744;6.898;2023-11-19T02:55:33;8.80;;;4.50;;
11865;SDS011;5992;52.744;6.898;2023-11-19T02:58:45;12.83;;;4.23;;
11865;SDS011;5992;52.744;6.898;2023-11-19T03:02:00;8.80;;;4.65;;
11865;SDS011;5992;52.744;6.898;2023-11-19T03:05:12;15.17;;;5.00;;
11865;SDS011;5992;52.744;6.898;2023-11-19T03:08:25;9.87;;;4.17;;
11865;SDS011;5992;52.744;6.898;2023-11-19T03:11:25;11.40;;;4.63;;
11865;SDS011;5992;52.744;6.898;2023-11-19T03:14:37;8.37;;;3.40;;
11865;SDS011;5992;52.744;6.898;2023-11-19T03:17:52;13.83;;;4.33;;
11865;SDS011;5992;52.744;6.898;2023-11-19T03:21:16;8.35;;;3.35;;
11865;SDS011;5992;52.744;6.898;2023-11-19T03:27:32;23.55;;;4.25;;
11865;SDS011;5992;52.744;6.898;2023-11-19T03:30:33;9.30;;;3.30;;
11865;SDS011;5992;52.744;6.898;2023-11-19T03:33:47;8.45;;;3.00;;
11865;SDS011;5992;52.744;6.898;2023-11-19T03:37:02;14.00;;;3.93;;
11865;SDS011;5992;52.744;6.898;2023-11-19T03:40:19;12.90;;;2.95;;
11865;SDS011;5992;52.744;6.898;2023-11-19T03:43:35;15.57;;;3.17;;
11865;SDS011;5992;52.744;6.898;2023-11-19T03:46:48;13.65;;;3.45;;
11865;SDS011;5992;52.744;6.898;2023-11-19T03:49:53;12.80;;;4.13;;
11865;SDS011;5992;52.744;6.898;2023-11-19T03:53:21;11.00;;;3.40;;
11865;SDS011;5992;52.744;6.898;2023-11-19T03:56:21;11.50;;;3.53;;
11865;SDS011;5992;52.744;6.898;2023-11-19T03:59:34;15.00;;;2.90;;
11865;SDS011;5992;52.744;6.898;2023-11-19T04:02:34;15.80;;;3.50;;
11865;SDS011;5992;52.744;6.898;2023-11-19T04:06:00;15.53;;;3.17;;
11865;SDS011;5992;52.744;6.898;2023-11-19T04:09:12;13.10;;;3.40;;
11865;SDS011;5992;52.744;6.898;2023-11-19T04:12:27;10.77;;;3.57;;
11865;SDS011;5992;52.744;6.898;2023-11-19T04:15:27;8.93;;;3.30;;
11865;SDS011;5992;52.744;6.898;2023-11-19T04:18:45;14.30;;;3.40;;
11865;SDS011;5992;52.744;6.898;2023-11-19T04:21:48;11.40;;;3.20;;
11865;SDS011;5992;52.744;6.898;2023-11-19T04:25:13;17.70;;;3.55;;
11865;SDS011;5992;52.744;6.898;2023-11-19T04:28:14;13.20;;;3.75;;
11865;SDS011;5992;52.744;6.898;2023-11-19T04:31:29;15.50;;;3.60;;
11865;SDS011;5992;52.744;6.898;2023-11-19T04:34:30;16.40;;;3.00;;
11865;SDS011;5992;52.744;6.898;2023-11-19T04:37:44;12.85;;;3.70;;
11865;SDS011;5992;52.744;6.898;2023-11-19T04:40:56;16.20;;;4.20;;
11865;SDS011;5992;52.744;6.898;2023-11-19T04:44:09;15.07;;;3.53;;
11865;SDS011;5992;52.744;6.898;2023-11-19T04:47:16;13.10;;;3.77;;
11865;SDS011;5992;52.744;6.898;2023-11-19T04:50:36;18.90;;;4.43;;
11865;SDS011;5992;52.744;6.898;2023-11-19T04:53:37;12.70;;;3.60;;
11865;SDS011;5992;52.744;6.898;2023-11-19T04:57:03;16.65;;;3.10;;
11865;SDS011;5992;52.744;6.898;2023-11-19T05:00:04;16.90;;;4.15;;
11865;SDS011;5992;52.744;6.898;2023-11-19T05:03:34;14.93;;;3.10;;
11865;SDS011;5992;52.744;6.898;2023-11-19T05:06:38;18.53;;;3.97;;
11865;SDS011;5992;52.744;6.898;2023-11-19T05:09:51;20.50;;;4.17;;
11865;SDS011;5992;52.744;6.898;2023-11-19T05:13:04;28.80;;;4.47;;
11865;SDS011;5992;52.744;6.898;2023-11-19T05:16:16;15.53;;;5.17;;
11865;SDS011;5992;52.744;6.898;2023-11-19T05:19:28;19.33;;;4.80;;
11865;SDS011;5992;52.744;6.898;2023-11-19T05:22:42;18.97;;;4.73;;
11865;SDS011;5992;52.744;6.898;2023-11-19T05:25:57;22.33;;;4.20;;
11865;SDS011;5992;52.744;6.898;2023-11-19T05:29:14;20.87;;;4.60;;
11865;SDS011;5992;52.744;6.898;2023-11-19T05:32:14;16.75;;;3.60;;
11865;SDS011;5992;52.744;6.898;2023-11-19T05:35:26;22.65;;;4.65;;
11865;SDS011;5992;52.744;6.898;2023-11-19T05:38:26;16.43;;;4.40;;
11865;SDS011;5992;52.744;6.898;2023-11-19T05:41:40;22.50;;;4.80;;
11865;SDS011;5992;52.744;6.898;2023-11-19T05:44:56;15.25;;;3.85;;
11865;SDS011;5992;52.744;6.898;2023-11-19T05:48:12;15.50;;;3.87;;
11865;SDS011;5992;52.744;6.898;2023-11-19T05:51:24;23.33;;;5.57;;
11865;SDS011;5992;52.744;6.898;2023-11-19T05:54:36;19.50;;;4.30;;
11865;SDS011;5992;52.744;6.898;2023-11-19T05:57:37;21.23;;;4.97;;
11865;SDS011;5992;52.744;6.898;2023-11-19T06:01:03;15.83;;;4.20;;
11865;SDS011;5992;52.744;6.898;2023-11-19T06:04:27;25.85;;;5.50;;
11865;SDS011;5992;52.744;6.898;2023-11-19T06:07:27;27.95;;;5.25;;
11865;SDS011;5992;52.744;6.898;2023-11-19T06:10:39;17.13;;;4.37;;
11865;SDS011;5992;52.744;6.898;2023-11-19T06:13:52;18.57;;;4.50;;
11865;SDS011;5992;52.744;6.898;2023-11-19T06:17:17;17.80;;;4.70;;
11865;SDS011;5992;52.744;6.898;2023-11-19T06:20:17;19.65;;;3.75;;
11865;SDS011;5992;52.744;6.898;2023-11-19T06:23:33;21.07;;;4.93;;
11865;SDS011;5992;52.744;6.898;2023-11-19T06:26:33;18.30;;;4.17;;
11865;SDS011;5992;52.744;6.898;2023-11-19T06:29:47;17.23;;;3.53;;
11865;SDS011;5992;52.744;6.898;2023-11-19T06:33:00;26.60;;;3.90;;
11865;SDS011;5992;52.744;6.898;2023-11-19T06:36:14;21.43;;;4.17;;
11865;SDS011;5992;52.744;6.898;2023-11-19T06:39:26;22.53;;;4.27;;
11865;SDS011;5992;52.744;6.898;2023-11-19T06:42:38;16.47;;;4.23;;
11865;SDS011;5992;52.744;6.898;2023-11-19T06:45:39;20.50;;;4.95;;
11865;SDS011;5992;52.744;6.898;2023-11-19T06:49:04;21.37;;;5.33;;
11865;SDS011;5992;52.744;6.898;2023-11-19T06:52:04;19.53;;;4.50;;
11865;SDS011;5992;52.744;6.898;2023-11-19T06:55:17;15.33;;;4.00;;
11865;SDS011;5992;52.744;6.898;2023-11-19T06:58:17;17.97;;;4.30;;
11865;SDS011;5992;52.744;6.898;2023-11-19T07:04:41;20.40;;;4.80;;
11865;SDS011;5992;52.744;6.898;2023-11-19T07:08:06;15.70;;;4.25;;
11865;SDS011;5992;52.744;6.898;2023-11-19T07:11:07;23.53;;;4.83;;
11865;SDS011;5992;52.744;6.898;2023-11-19T07:14:21;18.23;;;4.23;;
11865;SDS011;5992;52.744;6.898;2023-11-19T07:17:21;19.67;;;4.47;;
11865;SDS011;5992;52.744;6.898;2023-11-19T07:20:47;19.65;;;5.10;;
11865;SDS011;5992;52.744;6.898;2023-11-19T07:24:00;20.65;;;3.80;;
11865;SDS011;5992;52.744;6.898;2023-11-19T07:27:15;21.97;;;4.77;;
11865;SDS011;5992;52.744;6.898;2023-11-19T07:30:15;19.75;;;4.55;;
11865;SDS011;5992;52.744;6.898;2023-11-19T07:33:27;20.30;;;4.70;;
11865;SDS011;5992;52.744;6.898;2023-11-19T07:36:29;12.30;;;3.97;;
11865;SDS011;5992;52.744;6.898;2023-11-19T07:39:57;19.85;;;4.75;;
11865;SDS011;5992;52.744;6.898;2023-11-19T07:43:01;14.25;;;3.75;;
11865;SDS011;5992;52.744;6.898;2023-11-19T07:48:58;17.65;;;3.95;;
11865;SDS011;5992;52.744;6.898;2023-11-19T07:52:12;21.67;;;4.60;;
11865;SDS011;5992;52.744;6.898;2023-11-19T07:58:39;23.27;;;5.23;;
11865;SDS011;5992;52.744;6.898;2023-11-19T08:01:39;17.17;;;4.83;;
11865;SDS011;5992;52.744;6.898;2023-11-19T08:04:52;18.00;;;4.30;;
11865;SDS011;5992;52.744;6.898;2023-11-19T08:07:54;17.85;;;4.15;;
11865;SDS011;5992;52.744;6.898;2023-11-19T08:11:18;17.43;;;3.87;;
11865;SDS011;5992;52.744;6.898;2023-11-19T08:14:19;26.07;;;4.40;;
11865;SDS011;5992;52.744;6.898;2023-11-19T08:17:31;23.50;;;5.07;;
11865;SDS011;5992;52.744;6.898;2023-11-19T08:20:31;26.20;;;5.40;;
11865;SDS011;5992;52.744;6.898;2023-11-19T08:23:45;21.40;;;3.90;;
11865;SDS011;5992;52.744;6.898;2023-11-19T08:26:57;15.75;;;3.85;;
11865;SDS011;5992;52.744;6.898;2023-11-19T08:30:11;21.50;;;4.13;;
11865;SDS011;5992;52.744;6.898;2023-11-19T08:36:15;16.83;;;3.67;;
11865;SDS011;5992;52.744;6.898;2023-11-19T08:39:42;18.80;;;4.70;;
11865;SDS011;5992;52.744;6.898;2023-11-19T08:42:54;17.73;;;4.33;;
11865;SDS011;5992;52.744;6.898;2023-11-19T08:46:09;15.10;;;4.65;;
11865;SDS011;5992;52.744;6.898;2023-11-19T08:49:33;19.03;;;4.57;;
11865;SDS011;5992;52.744;6.898;2023-11-19T08:52:53;15.97;;;4.37;;
11865;SDS011;5992;52.744;6.898;2023-11-19T08:59:05;17.33;;;4.17;;
11865;SDS011;5992;52.744;6.898;2023-11-19T09:02:31;17.15;;;3.89;;
11865;SDS011;5992;52.744;6.898;2023-11-19T09:05:46;27.73;;;5.63;;
11865;SDS011;5992;52.744;6.898;2023-11-19T09:08:50;19.85;;;4.40;;
11865;SDS011;5992;52.744;6.898;2023-11-19T09:12:04;15.17;;;3.13;;
11865;SDS011;5992;52.744;6.898;2023-11-19T09:15:17;16.23;;;4.13;;
11865;SDS011;5992;52.744;6.898;2023-11-19T09:18:41;22.07;;;3.80;;
11865;SDS011;5992;52.744;6.898;2023-11-19T09:21:41;13.67;;;4.00;;
11865;SDS011;5992;52.744;6.898;2023-11-19T09:24:53;16.57;;;4.47;;
11865;SDS011;5992;52.744;6.898;2023-11-19T09:27:53;23.23;;;5.63;;
11865;SDS011;5992;52.744;6.898;2023-11-19T09:31:14;17.13;;;3.53;;
11865;SDS011;5992;52.744;6.898;2023-11-19T09:34:29;16.43;;;4.10;;
11865;SDS011;5992;52.744;6.898;2023-11-19T09:37:44;22.20;;;3.70;;
11865;SDS011;5992;52.744;6.898;2023-11-19T09:40:44;25.50;;;4.03;;
11865;SDS011;5992;52.744;6.898;2023-11-19T09:43:56;19.30;;;4.20;;
11865;SDS011;5992;52.744;6.898;2023-11-19T09:46:58;21.10;;;4.40;;
11865;SDS011;5992;52.744;6.898;2023-11-19T09:50:23;18.93;;;4.00;;
11865;SDS011;5992;52.744;6.898;2023-11-19T09:53:24;23.57;;;4.83;;
11865;SDS011;5992;52.744;6.898;2023-11-19T09:56:48;19.90;;;4.65;;
11865;SDS011;5992;52.744;6.898;2023-11-19T10:00:03;22.95;;;5.05;;
11865;SDS011;5992;52.744;6.898;2023-11-19T10:03:30;14.23;;;3.90;;
11865;SDS011;5992;52.744;6.898;2023-11-19T10:06:45;22.93;;;4.63;;
11865;SDS011;5992;52.744;6.898;2023-11-19T10:10:03;17.53;;;3.97;;
11865;SDS011;5992;52.744;6.898;2023-11-19T10:13:04;17.97;;;4.73;;
11865;SDS011;5992;52.744;6.898;2023-11-19T10:16:28;25.37;;;4.47;;
11865;SDS011;5992;52.744;6.898;2023-11-19T10:19:41;26.53;;;4.63;;
11865;SDS011;5992;52.744;6.898;2023-11-19T10:23:06;29.60;;;5.70;;
11865;SDS011;5992;52.744;6.898;2023-11-19T10:29:55;20.33;;;4.70;;
11865;SDS011;5992;52.744;6.898;2023-11-19T10:33:07;25.50;;;5.03;;
11865;SDS011;5992;52.744;6.898;2023-11-19T10:36:39;21.25;;;5.40;;
11865;SDS011;5992;52.744;6.898;2023-11-19T10:39:51;16.17;;;4.30;;
11865;SDS011;5992;52.744;6.898;2023-11-19T10:43:16;15.85;;;3.80;;
11865;SDS011;5992;52.744;6.898;2023-11-19T10:46:38;12.33;;;3.87;;
11865;SDS011;5992;52.744;6.898;2023-11-19T10:50:01;26.60;;;4.90;;
11865;SDS011;5992;52.744;6.898;2023-11-19T10:53:03;20.75;;;4.25;;
11865;SDS011;5992;52.744;6.898;2023-11-19T10:56:29;15.50;;;4.95;;
11865;SDS011;5992;52.744;6.898;2023-11-19T10:59:40;17.00;;;4.73;;
11865;SDS011;5992;52.744;6.898;2023-11-19T11:03:06;24.87;;;4.27;;
11865;SDS011;5992;52.744;6.898;2023-11-19T11:06:18;20.80;;;4.65;;
11865;SDS011;5992;52.744;6.898;2023-11-19T11:09:47;16.37;;;4.13;;
11865;SDS011;5992;52.744;6.898;2023-11-19T11:13:03;14.65;;;3.85;;
11865;SDS011;5992;52.744;6.898;2023-11-19T11:16:16;11.10;;;4.10;;
11865;SDS011;5992;52.744;6.898;2023-11-19T11:19:29;16.60;;;4.70;;
11865;SDS011;5992;52.744;6.898;2023-11-19T11:22:46;20.03;;;4.13;;
11865;SDS011;5992;52.744;6.898;2023-11-19T11:26:00;14.63;;;3.63;;
11865;SDS011;5992;52.744;6.898;2023-11-19T11:29:30;15.95;;;4.10;;
11865;SDS011;5992;52.744;6.898;2023-11-19T11:32:45;19.80;;;4.57;;
11865;SDS011;5992;52.744;6.898;2023-11-19T11:36:11;21.25;;;5.35;;
11865;SDS011;5992;52.744;6.898;2023-11-19T11:39:23;17.27;;;3.67;;
11865;SDS011;5992;52.744;6.898;2023-11-19T11:42:51;22.43;;;4.50;;
11865;SDS011;5992;52.744;6.898;2023-11-19T11:46:05;17.83;;;4.20;;
11865;SDS011;5992;52.744;6.898;2023-11-19T11:49:18;18.10;;;4.03;;
11865;SDS011;5992;52.744;6.898;2023-11-19T11:55:53;16.60;;;4.20;;
11865;SDS011;5992;52.744;6.898;2023-11-19T11:59:08;23.50;;;4.80;;
11865;SDS011;5992;52.744;6.898;2023-11-19T12:02:33;20.30;;;3.77;;
11865;SDS011;5992;52.744;6.898;2023-11-19T12:05:57;17.90;;;4.60;;
11865;SDS011;5992;52.744;6.898;2023-11-19T12:09:12;24.60;;;4.10;;
11865;SDS011;5992;52.744;6.898;2023-11-19T12:12:28;15.45;;;3.40;;
11865;SDS011;5992;52.744;6.898;2023-11-19T12:15:34;17.95;;;4.20;;
11865;SDS011;5992;52.744;6.898;2023-11-19T12:19:02;17.65;;;4.15;;
11865;SDS011;5992;52.744;6.898;2023-11-19T12:22:14;14.93;;;3.77;;
11865;SDS011;5992;52.744;6.898;2023-11-19T12:25:38;17.13;;;4.13;;
11865;SDS011;5992;52.744;6.898;2023-11-19T12:28:38;18.97;;;3.47;;
11865;SDS011;5992;52.744;6.898;2023-11-19T12:31:55;13.40;;;3.55;;
11865;SDS011;5992;52.744;6.898;2023-11-19T12:35:08;16.00;;;4.10;;
11865;SDS011;5992;52.744;6.898;2023-11-19T12:38:31;18.60;;;4.35;;
11865;SDS011;5992;52.744;6.898;2023-11-19T12:41:31;18.47;;;3.63;;
11865;SDS011;5992;52.744;6.898;2023-11-19T12:44:54;18.00;;;3.97;;
11865;SDS011;5992;52.744;6.898;2023-11-19T12:48:11;22.37;;;4.40;;
11865;SDS011;5992;52.744;6.898;2023-11-19T12:51:38;14.37;;;3.30;;
11865;SDS011;5992;52.744;6.898;2023-11-19T12:54:38;22.80;;;4.60;;
11865;SDS011;5992;52.744;6.898;2023-11-19T12:57:50;16.60;;;4.00;;
11865;SDS011;5992;52.744;6.898;2023-11-19T13:04:18;19.27;;;3.97;;
11865;SDS011;5992;52.744;6.898;2023-11-19T13:07:30;16.97;;;5.13;;
11865;SDS011;5992;52.744;6.898;2023-11-19T13:10:49;16.15;;;4.00;;
11865;SDS011;5992;52.744;6.898;2023-11-19T13:14:02;14.90;;;3.90;;
11865;SDS011;5992;52.744;6.898;2023-11-19T13:17:25;13.20;;;3.27;;
11865;SDS011;5992;52.744;6.898;2023-11-19T13:20:28;14.40;;;3.20;;
11865;SDS011;5992;52.744;6.898;2023-11-19T13:23:55;18.57;;;3.60;;
11865;SDS011;5992;52.744;6.898;2023-11-19T13:27:07;16.43;;;3.67;;
11865;SDS011;5992;52.744;6.898;2023-11-19T13:30:24;17.37;;;3.47;;
11865;SDS011;5992;52.744;6.898;2023-11-19T13:33:35;12.10;;;3.67;;
11865;SDS011;5992;52.744;6.898;2023-11-19T13:37:04;15.97;;;3.57;;
11865;SDS011;5992;52.744;6.898;2023-11-19T13:40:16;10.90;;;3.05;;
11865;SDS011;5992;52.744;6.898;2023-11-19T13:43:29;13.93;;;3.47;;
11865;SDS011;5992;52.744;6.898;2023-11-19T13:46:41;21.27;;;3.60;;
11865;SDS011;5992;52.744;6.898;2023-11-19T13:50:05;11.57;;;3.07;;
11865;SDS011;5992;52.744;6.898;2023-11-19T13:53:08;14.85;;;3.75;;
11865;SDS011;5992;52.744;6.898;2023-11-19T13:56:33;15.10;;;4.57;;
11865;SDS011;5992;52.744;6.898;2023-11-19T13:59:33;9.47;;;3.00;;
11865;SDS011;5992;52.744;6.898;2023-11-19T14:02:58;13.40;;;3.73;;
11865;SDS011;5992;52.744;6.898;2023-11-19T14:05:58;15.23;;;3.43;;
11865;SDS011;5992;52.744;6.898;2023-11-19T14:09:13;12.13;;;3.33;;
11865;SDS011;5992;52.744;6.898;2023-11-19T14:12:25;13.07;;;3.30;;
11865;SDS011;5992;52.744;6.898;2023-11-19T14:15:38;14.85;;;2.95;;
11865;SDS011;5992;52.744;6.898;2023-11-19T14:18:38;13.30;;;3.43;;
11865;SDS011;5992;52.744;6.898;2023-11-19T14:21:50;14.10;;;3.50;;
11865;SDS011;5992;52.744;6.898;2023-11-19T14:24:52;12.83;;;3.33;;
11865;SDS011;5992;52.744;6.898;2023-11-19T14:28:17;9.60;;;3.13;;
11865;SDS011;5992;52.744;6.898;2023-11-19T14:31:17;11.60;;;2.90;;
11865;SDS011;5992;52.744;6.898;2023-11-19T14:34:34;11.40;;;3.10;;
11865;SDS011;5992;52.744;6.898;2023-11-19T14:37:51;12.03;;;3.50;;
11865;SDS011;5992;52.744;6.898;2023-11-19T14:41:07;10.20;;;3.00;;
11865;SDS011;5992;52.744;6.898;2023-11-19T14:44:23;13.10;;;2.93;;
11865;SDS011;5992;52.744;6.898;2023-11-19T14:47:38;13.17;;;2.73;;
11865;SDS011;5992;52.744;6.898;2023-11-19T14:50:38;10.90;;;3.13;;
11865;SDS011;5992;52.744;6.898;2023-11-19T14:53:50;11.50;;;2.60;;
11865;SDS011;5992;52.744;6.898;2023-11-19T14:56:52;13.90;;;3.80;;
11865;SDS011;5992;52.744;6.898;2023-11-19T15:03:13;13.90;;;3.33;;
11865;SDS011;5992;52.744;6.898;2023-11-19T15:06:37;9.40;;;3.33;;
11865;SDS011;5992;52.744;6.898;2023-11-19T15:09:37;14.55;;;4.50;;
11865;SDS011;5992;52.744;6.898;2023-11-19T15:12:50;13.75;;;4.40;;
11865;SDS011;5992;52.744;6.898;2023-11-19T15:19:26;12.47;;;3.53;;
11865;SDS011;5992;52.744;6.898;2023-11-19T15:22:26;14.73;;;4.20;;
11865;SDS011;5992;52.744;6.898;2023-11-19T15:25:40;15.07;;;4.10;;
11865;SDS011;5992;52.744;6.898;2023-11-19T15:28:44;12.97;;;4.30;;
11865;SDS011;5992;52.744;6.898;2023-11-19T15:32:09;14.63;;;4.17;;
11865;SDS011;5992;52.744;6.898;2023-11-19T15:35:09;9.63;;;4.00;;
11865;SDS011;5992;52.744;6.898;2023-11-19T15:38:23;12.10;;;4.75;;
11865;SDS011;5992;52.744;6.898;2023-11-19T15:41:23;12.85;;;4.25;;
11865;SDS011;5992;52.744;6.898;2023-11-19T15:44:41;11.90;;;4.00;;
11865;SDS011;5992;52.744;6.898;2023-11-19T15:47:59;11.97;;;4.10;;
11865;SDS011;5992;52.744;6.898;2023-11-19T15:51:12;12.57;;;4.27;;
11865;SDS011;5992;52.744;6.898;2023-11-19T15:54:15;13.10;;;3.70;;
11865;SDS011;5992;52.744;6.898;2023-11-19T15:57:33;7.90;;;3.37;;
11865;SDS011;5992;52.744;6.898;2023-11-19T16:00:34;15.50;;;3.90;;
11865;SDS011;5992;52.744;6.898;2023-11-19T16:03:59;11.70;;;4.17;;
11865;SDS011;5992;52.744;6.898;2023-11-19T16:07:11;8.13;;;3.57;;
11865;SDS011;5992;52.744;6.898;2023-11-19T16:10:35;11.53;;;3.67;;
11865;SDS011;5992;52.744;6.898;2023-11-19T16:13:36;14.80;;;3.60;;
11865;SDS011;5992;52.744;6.898;2023-11-19T16:16:51;8.25;;;3.05;;
11865;SDS011;5992;52.744;6.898;2023-11-19T16:20:05;10.63;;;3.00;;
11865;SDS011;5992;52.744;6.898;2023-11-19T16:23:19;10.97;;;3.90;;
11865;SDS011;5992;52.744;6.898;2023-11-19T16:29:16;8.85;;;2.65;;
11865;SDS011;5992;52.744;6.898;2023-11-19T16:32:17;14.67;;;3.47;;
11865;SDS011;5992;52.744;6.898;2023-11-19T16:35:42;16.53;;;3.43;;
11865;SDS011;5992;52.744;6.898;2023-11-19T16:38:42;10.35;;;3.60;;
11865;SDS011;5992;52.744;6.898;2023-11-19T16:41:56;10.10;;;3.10;;
11865;SDS011;5992;52.744;6.898;2023-11-19T16:44:57;8.70;;;2.90;;
11865;SDS011;5992;52.744;6.898;2023-11-19T16:48:10;6.87;;;2.83;;
11865;SDS011;5992;52.744;6.898;2023-11-19T16:51:23;10.70;;;3.00;;
11865;SDS011;5992;52.744;6.898;2023-11-19T16:54:36;9.03;;;3.20;;
11865;SDS011;5992;52.744;6.898;2023-11-19T16:57:37;11.70;;;3.20;;
11865;SDS011;5992;52.744;6.898;2023-11-19T17:01:02;7.73;;;2.23;;
11865;SDS011;5992;52.744;6.898;2023-11-19T17:04:04;8.77;;;3.00;;
11865;SDS011;5992;52.744;6.898;2023-11-19T17:07:32;6.10;;;2.57;;
11865;SDS011;5992;52.744;6.898;2023-11-19T17:10:44;10.97;;;2.57;;
11865;SDS011;5992;52.744;6.898;2023-11-19T17:14:12;10.05;;;3.05;;
11865;SDS011;5992;52.744;6.898;2023-11-19T17:17:13;13.00;;;3.27;;
11865;SDS011;5992;52.744;6.898;2023-11-19T17:20:34;9.77;;;3.20;;
11865;SDS011;5992;52.744;6.898;2023-11-19T17:26:59;9.27;;;2.40;;
11865;SDS011;5992;52.744;6.898;2023-11-19T17:29:59;12.07;;;2.77;;
11865;SDS011;5992;52.744;6.898;2023-11-19T17:33:16;11.47;;;2.87;;
11865;SDS011;5992;52.744;6.898;2023-11-19T17:36:29;11.50;;;3.63;;
11865;SDS011;5992;52.744;6.898;2023-11-19T17:39:55;9.30;;;2.70;;
11865;SDS011;5992;52.744;6.898;2023-11-19T17:42:56;10.50;;;3.03;;
11865;SDS011;5992;52.744;6.898;2023-11-19T17:46:12;6.57;;;2.33;;
11865;SDS011;5992;52.744;6.898;2023-11-19T17:49:14;8.73;;;3.03;;
11865;SDS011;5992;52.744;6.898;2023-11-19T17:52:28;10.17;;;3.30;;
11865;SDS011;5992;52.744;6.898;2023-11-19T17:55:45;18.05;;;4.10;;
11865;SDS011;5992;52.744;6.898;2023-11-19T17:59:01;9.70;;;3.27;;
11865;SDS011;5992;52.744;6.898;2023-11-19T18:02:13;11.03;;;3.43;;
11865;SDS011;5992;52.744;6.898;2023-11-19T18:05:28;8.90;;;2.80;;
11865;SDS011;5992;52.744;6.898;2023-11-19T18:08:29;12.77;;;3.37;;
11865;SDS011;5992;52.744;6.898;2023-11-19T18:11:54;16.40;;;4.20;;
11865;SDS011;5992;52.744;6.898;2023-11-19T18:14:55;14.73;;;3.03;;
11865;SDS011;5992;52.744;6.898;2023-11-19T18:18:08;13.53;;;3.10;;
11865;SDS011;5992;52.744;6.898;2023-11-19T18:21:12;15.70;;;2.87;;
11865;SDS011;5992;52.744;6.898;2023-11-19T18:24:28;12.37;;;3.67;;
11865;SDS011;5992;52.744;6.898;2023-11-19T18:27:40;11.50;;;4.25;;
11865;SDS011;5992;52.744;6.898;2023-11-19T18:37:38;13.73;;;3.30;;
11865;SDS011;5992;52.744;6.898;2023-11-19T18:40:41;9.60;;;2.97;;
11865;SDS011;5992;52.744;6.898;2023-11-19T18:44:06;12.50;;;2.53;;
11865;SDS011;5992;52.744;6.898;2023-11-19T18:47:06;11.05;;;2.70;;
11865;SDS011;5992;52.744;6.898;2023-11-19T18:50:20;14.35;;;2.85;;
11865;SDS011;5992;52.744;6.898;2023-11-19T18:53:32;11.87;;;3.27;;
11865;SDS011;5992;52.744;6.898;2023-11-19T18:56:46;12.93;;;2.40;;
11865;SDS011;5992;52.744;6.898;2023-11-19T18:59:58;10.80;;;3.10;;
11865;SDS011;5992;52.744;6.898;2023-11-19T19:03:10;10.93;;;3.20;;
11865;SDS011;5992;52.744;6.898;2023-11-19T19:06:11;9.25;;;2.90;;
11865;SDS011;5992;52.744;6.898;2023-11-19T19:09:24;9.35;;;2.60;;
11865;SDS011;5992;52.744;6.898;2023-11-19T19:12:26;8.40;;;2.65;;
11865;SDS011;5992;52.744;6.898;2023-11-19T19:15:50;8.40;;;2.80;;
11865;SDS011;5992;52.744;6.898;2023-11-19T19:19:02;8.75;;;2.65;;
11865;SDS011;5992;52.744;6.898;2023-11-19T19:22:19;9.03;;;2.67;;
11865;SDS011;5992;52.744;6.898;2023-11-19T19:25:23;7.63;;;2.97;;
11865;SDS011;5992;52.744;6.898;2023-11-19T19:28:37;6.67;;;2.13;;
11865;SDS011;5992;52.744;6.898;2023-11-19T19:31:48;9.97;;;2.50;;
11865;SDS011;5992;52.744;6.898;2023-11-19T19:35:01;8.20;;;2.37;;
11865;SDS011;5992;52.744;6.898;2023-11-19T19:38:05;10.65;;;2.30;;
11865;SDS011;5992;52.744;6.898;2023-11-19T19:44:09;10.00;;;2.20;;
11865;SDS011;5992;52.744;6.898;2023-11-19T19:47:33;2.80;;;1.60;;
11865;SDS011;5992;52.744;6.898;2023-11-19T19:50:34;7.13;;;1.80;;
11865;SDS011;5992;52.744;6.898;2023-11-19T19:53:48;4.93;;;2.00;;
11865;SDS011;5992;52.744;6.898;2023-11-19T19:56:48;4.20;;;1.87;;
11865;SDS011;5992;52.744;6.898;2023-11-19T20:00:02;8.30;;;2.30;;
11865;SDS011;5992;52.744;6.898;2023-11-19T20:03:29;6.77;;;2.13;;
11865;SDS011;5992;52.744;6.898;2023-11-19T20:06:35;1.83;;;1.40;;
11865;SDS011;5992;52.744;6.898;2023-11-19T20:09:59;7.50;;;2.25;;
11865;SDS011;5992;52.744;6.898;2023-11-19T20:12:59;4.30;;;1.80;;
11865;SDS011;5992;52.744;6.898;2023-11-19T20:16:14;6.50;;;2.40;;
11865;SDS011;5992;52.744;6.898;2023-11-19T20:19:30;2.50;;;2.00;;